Fuji Maru — JD2030 — position and weather

sailwx.info

Track history (hours):
 
Tides and Currents Weather Stations Pressure Air Temp Water Temp Dewpoint Dewpoint Depression Visibility Wind Speed Wind Dir Waves Ship Positions

Fuji Maru

Last reported at 2016-Oct-01 20:28 UTC. Time now 2016-Oct-01 20:44 UTC.
Position N 35°39' E 139°46'.

Length 38 m; draft 4.4 m.

Type: Tug. MMSI: 431001102.

Date/timePositionNaut miles runAvg speedWind from/ knotsBaromVisibWave heightAir tempDewpointWater temp
2016-Oct-01 20:28N 35°39' E 139°46'0 0.0
2016-Oct-01 15:31N 35°39' E 139°46'0 0.0
2016-Oct-01 14:31N 35°39' E 139°46'0 0.0
2016-Oct-01 13:28N 35°39' E 139°46'0 0.0
2016-Oct-01 04:32N 35°39' E 139°46'0 0.0
2016-Oct-01 03:32N 35°39' E 139°46'0 0.0
2016-Oct-01 00:32N 35°39' E 139°46'3 1.5
2016-Sep-30 22:33N 35°37' E 139°48'3 1.5
2016-Sep-30 20:32N 35°39' E 139°46'0 0.0
2016-Sep-30 17:29N 35°39' E 139°46'0 0.0
2016-Sep-30 16:29N 35°39' E 139°46'0 0.0
2016-Sep-30 14:32N 35°39' E 139°46'0 0.0
2016-Sep-30 13:32N 35°39' E 139°46'2 0.8
2016-Sep-30 10:32N 35°37' E 139°47'1 0.5
2016-Sep-30 08:31N 35°36' E 139°47'2 1.2
2016-Sep-30 06:33N 35°38' E 139°46'1 0.3
2016-Sep-30 03:33N 35°39' E 139°46'0 0.0
2016-Sep-30 02:30N 35°39' E 139°46'0 0.0
2016-Sep-29 23:33N 35°39' E 139°46'0 0.0
2016-Sep-29 21:33N 35°39' E 139°46'0 0.0
2016-Sep-29 20:24N 35°39' E 139°46'0 0.0
2016-Sep-29 19:33N 35°39' E 139°46'0 0.0
2016-Sep-29 16:33N 35°39' E 139°46'0 0.0
2016-Sep-29 15:33N 35°39' E 139°46'0 0.0
2016-Sep-29 14:33N 35°39' E 139°46'2 1.8
2016-Sep-29 13:33N 35°37' E 139°46'2 0.3
2016-Sep-29 08:31N 35°35' E 139°47'3 2.8
2016-Sep-29 07:33N 35°38' E 139°46'1 0.1
2016-Sep-29 00:31N 35°39' E 139°46'0 0.0
2016-Sep-28 21:28N 35°39' E 139°46'0 0.0
2016-Sep-28 19:31N 35°39' E 139°46'0 0.0
2016-Sep-28 16:31N 35°39' E 139°46'0 0.0
2016-Sep-28 15:31N 35°39' E 139°46'0 0.0
2016-Sep-28 12:31N 35°39' E 139°46'0 0.0
2016-Sep-28 08:31N 35°39' E 139°46'11 2.3
2016-Sep-28 03:32N 35°29' E 139°39'0 0.0
2016-Sep-28 02:32N 35°29' E 139°39'0 0.0
2016-Sep-28 01:32N 35°29' E 139°39'0 0.0
2016-Sep-27 23:32N 35°29' E 139°39'0 0.0
2016-Sep-27 19:32N 35°29' E 139°39'0 0.0
2016-Sep-27 14:32N 35°29' E 139°39'0 0.0
2016-Sep-27 13:32N 35°29' E 139°39'0 0.0
2016-Sep-27 10:32N 35°29' E 139°39'0 0.0
2016-Sep-27 00:32N 35°29' E 139°39'0 0.0
2016-Sep-26 20:32N 35°29' E 139°39'0 0.0
2016-Sep-26 19:32N 35°29' E 139°39'0 0.0
2016-Sep-26 15:32N 35°29' E 139°39'0 0.0
2016-Sep-26 13:32N 35°29' E 139°39'0 0.0
2016-Sep-26 11:32N 35°29' E 139°39'0 0.0
2016-Sep-26 08:32N 35°29' E 139°39'0 0.0
2016-Sep-26 02:32N 35°29' E 139°39'0 0.0
2016-Sep-26 01:32N 35°29' E 139°39'0 0.0
2016-Sep-26 00:32N 35°29' E 139°39'0 0.0
2016-Sep-25 21:32N 35°29' E 139°39'0 0.0
2016-Sep-25 17:32N 35°29' E 139°39'0 0.0
2016-Sep-25 16:32N 35°29' E 139°39'0 0.0
2016-Sep-25 15:32N 35°29' E 139°39'0 0.0
2016-Sep-25 14:32N 35°29' E 139°39'0 0.0
2016-Sep-25 12:32N 35°29' E 139°39'0 0.0
2016-Sep-25 11:32N 35°29' E 139°39'0 0.0
2016-Sep-25 10:32N 35°29' E 139°39'0 0.0
2016-Sep-25 09:32N 35°29' E 139°39'0 0.0
2016-Sep-25 07:32N 35°29' E 139°39'0 0.0
2016-Sep-25 04:32N 35°29' E 139°39'0 0.0
2016-Sep-25 00:32N 35°29' E 139°39'0 0.0
2016-Sep-24 22:32N 35°29' E 139°39'0 0.0
2016-Sep-24 21:32N 35°29' E 139°39'0 0.0
2016-Sep-24 19:32N 35°29' E 139°39'0 0.0
2016-Sep-24 18:32N 35°29' E 139°39'0 0.0
2016-Sep-24 17:32N 35°29' E 139°39'0 0.0
2016-Sep-24 16:32N 35°29' E 139°39'0 0.0
2016-Sep-24 14:32N 35°29' E 139°39'0 0.0
2016-Sep-24 12:32N 35°29' E 139°39'0 0.0
2016-Sep-24 10:32N 35°29' E 139°39'0 0.0
2016-Sep-24 09:32N 35°29' E 139°39'0 0.0
2016-Sep-24 03:32N 35°29' E 139°39'0 0.0
2016-Sep-24 02:32N 35°29' E 139°39'0 0.0
2016-Sep-24 01:32N 35°29' E 139°39'0 0.0
2016-Sep-24 00:32N 35°29' E 139°39'0 0.0
2016-Sep-23 19:32N 35°29' E 139°39'0 0.0
2016-Sep-23 17:32N 35°29' E 139°39'0 0.0
2016-Sep-23 16:32N 35°29' E 139°39'0 0.0
2016-Sep-23 15:32N 35°29' E 139°39'0 0.0
2016-Sep-23 13:32N 35°29' E 139°39'0 0.0
2016-Sep-23 09:32N 35°29' E 139°39'0 0.0
2016-Sep-23 06:32N 35°29' E 139°39'0 0.0
2016-Sep-23 04:32N 35°29' E 139°39'0 0.0
2016-Sep-23 03:32N 35°29' E 139°39'0 0.0
2016-Sep-23 02:32N 35°29' E 139°39'0 0.0
2016-Sep-23 01:32N 35°29' E 139°39'0 0.0
2016-Sep-23 00:32N 35°29' E 139°39'0 0.0
2016-Sep-22 23:32N 35°29' E 139°39'0 0.0
2016-Sep-22 20:32N 35°29' E 139°39'0 0.0
2016-Sep-22 12:32N 35°29' E 139°39'0 0.0
2016-Sep-22 04:32N 35°29' E 139°39'0 0.0
2016-Sep-22 03:32N 35°29' E 139°39'0 0.0
2016-Sep-22 00:32N 35°29' E 139°39'0 0.0
2016-Sep-21 23:32N 35°29' E 139°39'0 0.0
2016-Sep-21 22:32N 35°29' E 139°39'  
Track history (hours):
 
Tides and Currents Weather Stations Pressure Air Temp Water Temp Dewpoint Dewpoint Depression Visibility Wind Speed Wind Dir Waves Ship Positions

Fuji Maru

Last reported at 2016-Oct-01 20:28 UTC. Time now 2016-Oct-01 20:44 UTC.
Position N 35°39' E 139°46'.

Length 38 m; draft 4.4 m.

Type: Tug. MMSI: 431001102.

Date/timePositionNaut miles runAvg speedWind from/ knotsBaromVisibWave heightAir tempDewpointWater temp
2016-Oct-01 20:28N 35°39' E 139°46'0 0.0
2016-Oct-01 15:31N 35°39' E 139°46'0 0.0
2016-Oct-01 14:31N 35°39' E 139°46'0 0.0
2016-Oct-01 13:28N 35°39' E 139°46'0 0.0
2016-Oct-01 04:32N 35°39' E 139°46'0 0.0
2016-Oct-01 03:32N 35°39' E 139°46'0 0.0
2016-Oct-01 00:32N 35°39' E 139°46'3 1.5
2016-Sep-30 22:33N 35°37' E 139°48'3 1.5
2016-Sep-30 20:32N 35°39' E 139°46'0 0.0
2016-Sep-30 17:29N 35°39' E 139°46'0 0.0
2016-Sep-30 16:29N 35°39' E 139°46'0 0.0
2016-Sep-30 14:32N 35°39' E 139°46'0 0.0
2016-Sep-30 13:32N 35°39' E 139°46'2 0.8
2016-Sep-30 10:32N 35°37' E 139°47'1 0.5
2016-Sep-30 08:31N 35°36' E 139°47'2 1.2
2016-Sep-30 06:33N 35°38' E 139°46'1 0.3
2016-Sep-30 03:33N 35°39' E 139°46'0 0.0
2016-Sep-30 02:30N 35°39' E 139°46'0 0.0
2016-Sep-29 23:33N 35°39' E 139°46'0 0.0
2016-Sep-29 21:33N 35°39' E 139°46'0 0.0
2016-Sep-29 20:24N 35°39' E 139°46'0 0.0
2016-Sep-29 19:33N 35°39' E 139°46'0 0.0
2016-Sep-29 16:33N 35°39' E 139°46'0 0.0
2016-Sep-29 15:33N 35°39' E 139°46'0 0.0
2016-Sep-29 14:33N 35°39' E 139°46'2 1.8
2016-Sep-29 13:33N 35°37' E 139°46'2 0.3
2016-Sep-29 08:31N 35°35' E 139°47'3 2.8
2016-Sep-29 07:33N 35°38' E 139°46'1 0.1
2016-Sep-29 00:31N 35°39' E 139°46'0 0.0
2016-Sep-28 21:28N 35°39' E 139°46'0 0.0
2016-Sep-28 19:31N 35°39' E 139°46'0 0.0
2016-Sep-28 16:31N 35°39' E 139°46'0 0.0
2016-Sep-28 15:31N 35°39' E 139°46'0 0.0
2016-Sep-28 12:31N 35°39' E 139°46'0 0.0
2016-Sep-28 08:31N 35°39' E 139°46'11 2.3
2016-Sep-28 03:32N 35°29' E 139°39'0 0.0
2016-Sep-28 02:32N 35°29' E 139°39'0 0.0
2016-Sep-28 01:32N 35°29' E 139°39'0 0.0
2016-Sep-27 23:32N 35°29' E 139°39'0 0.0
2016-Sep-27 19:32N 35°29' E 139°39'0 0.0
2016-Sep-27 14:32N 35°29' E 139°39'0 0.0
2016-Sep-27 13:32N 35°29' E 139°39'0 0.0
2016-Sep-27 10:32N 35°29' E 139°39'0 0.0
2016-Sep-27 00:32N 35°29' E 139°39'0 0.0
2016-Sep-26 20:32N 35°29' E 139°39'0 0.0
2016-Sep-26 19:32N 35°29' E 139°39'0 0.0
2016-Sep-26 15:32N 35°29' E 139°39'0 0.0
2016-Sep-26 13:32N 35°29' E 139°39'0 0.0
2016-Sep-26 11:32N 35°29' E 139°39'0 0.0
2016-Sep-26 08:32N 35°29' E 139°39'0 0.0
2016-Sep-26 02:32N 35°29' E 139°39'0 0.0
2016-Sep-26 01:32N 35°29' E 139°39'0 0.0
2016-Sep-26 00:32N 35°29' E 139°39'0 0.0
2016-Sep-25 21:32N 35°29' E 139°39'0 0.0
2016-Sep-25 17:32N 35°29' E 139°39'0 0.0
2016-Sep-25 16:32N 35°29' E 139°39'0 0.0
2016-Sep-25 15:32N 35°29' E 139°39'0 0.0
2016-Sep-25 14:32N 35°29' E 139°39'0 0.0
2016-Sep-25 12:32N 35°29' E 139°39'0 0.0
2016-Sep-25 11:32N 35°29' E 139°39'0 0.0
2016-Sep-25 10:32N 35°29' E 139°39'0 0.0
2016-Sep-25 09:32N 35°29' E 139°39'0 0.0
2016-Sep-25 07:32N 35°29' E 139°39'0 0.0
2016-Sep-25 04:32N 35°29' E 139°39'0 0.0
2016-Sep-25 00:32N 35°29' E 139°39'0 0.0
2016-Sep-24 22:32N 35°29' E 139°39'0 0.0
2016-Sep-24 21:32N 35°29' E 139°39'0 0.0
2016-Sep-24 19:32N 35°29' E 139°39'0 0.0
2016-Sep-24 18:32N 35°29' E 139°39'0 0.0
2016-Sep-24 17:32N 35°29' E 139°39'0 0.0
2016-Sep-24 16:32N 35°29' E 139°39'0 0.0
2016-Sep-24 14:32N 35°29' E 139°39'0 0.0
2016-Sep-24 12:32N 35°29' E 139°39'0 0.0
2016-Sep-24 10:32N 35°29' E 139°39'0 0.0
2016-Sep-24 09:32N 35°29' E 139°39'0 0.0
2016-Sep-24 03:32N 35°29' E 139°39'0 0.0
2016-Sep-24 02:32N 35°29' E 139°39'0 0.0
2016-Sep-24 01:32N 35°29' E 139°39'0 0.0
2016-Sep-24 00:32N 35°29' E 139°39'0 0.0
2016-Sep-23 19:32N 35°29' E 139°39'0 0.0
2016-Sep-23 17:32N 35°29' E 139°39'0 0.0
2016-Sep-23 16:32N 35°29' E 139°39'0 0.0
2016-Sep-23 15:32N 35°29' E 139°39'0 0.0
2016-Sep-23 13:32N 35°29' E 139°39'0 0.0
2016-Sep-23 09:32N 35°29' E 139°39'0 0.0
2016-Sep-23 06:32N 35°29' E 139°39'0 0.0
2016-Sep-23 04:32N 35°29' E 139°39'0 0.0
2016-Sep-23 03:32N 35°29' E 139°39'0 0.0
2016-Sep-23 02:32N 35°29' E 139°39'0 0.0
2016-Sep-23 01:32N 35°29' E 139°39'0 0.0
2016-Sep-23 00:32N 35°29' E 139°39'0 0.0
2016-Sep-22 23:32N 35°29' E 139°39'0 0.0
2016-Sep-22 20:32N 35°29' E 139°39'0 0.0
2016-Sep-22 12:32N 35°29' E 139°39'0 0.0
2016-Sep-22 04:32N 35°29' E 139°39'0 0.0
2016-Sep-22 03:32N 35°29' E 139°39'0 0.0
2016-Sep-22 00:32N 35°29' E 139°39'0 0.0
2016-Sep-21 23:32N 35°29' E 139°39'0 0.0
2016-Sep-21 22:32N 35°29' E 139°39'  

Dump ship's entire track history